sensor_id;sensor_type;location;lat;lon;timestamp;temperature;humidity
7234;DHT22;3658;47.992;10.158;2024-03-02T00:00:39;20.80;38.40
7234;DHT22;3658;47.992;10.158;2024-03-02T00:03:07;20.80;38.40
7234;DHT22;3658;47.992;10.158;2024-03-02T00:05:35;20.80;38.50
7234;DHT22;3658;47.992;10.158;2024-03-02T00:08:05;20.80;38.40
7234;DHT22;3658;47.992;10.158;2024-03-02T00:10:37;20.80;38.30
7234;DHT22;3658;47.992;10.158;2024-03-02T00:13:05;20.80;38.30
7234;DHT22;3658;47.992;10.158;2024-03-02T00:15:46;20.80;38.40
7234;DHT22;3658;47.992;10.158;2024-03-02T00:18:16;20.80;38.30
7234;DHT22;3658;47.992;10.158;2024-03-02T00:20:45;20.80;38.30
7234;DHT22;3658;47.992;10.158;2024-03-02T00:23:15;20.80;38.20
7234;DHT22;3658;47.992;10.158;2024-03-02T00:25:44;20.80;38.20
7234;DHT22;3658;47.992;10.158;2024-03-02T00:28:14;20.80;38.30
7234;DHT22;3658;47.992;10.158;2024-03-02T00:30:56;20.80;38.80
7234;DHT22;3658;47.992;10.158;2024-03-02T00:33:26;20.80;38.20
7234;DHT22;3658;47.992;10.158;2024-03-02T00:35:53;20.80;38.20
7234;DHT22;3658;47.992;10.158;2024-03-02T00:38:21;20.80;38.10
7234;DHT22;3658;47.992;10.158;2024-03-02T00:40:48;20.80;38.10
7234;DHT22;3658;47.992;10.158;2024-03-02T00:43:42;20.80;38.20
7234;DHT22;3658;47.992;10.158;2024-03-02T00:46:11;20.80;38.20
7234;DHT22;3658;47.992;10.158;2024-03-02T00:48:47;20.80;38.10
7234;DHT22;3658;47.992;10.158;2024-03-02T00:51:14;20.80;38.10
7234;DHT22;3658;47.992;10.158;2024-03-02T00:53:42;20.80;38.10
7234;DHT22;3658;47.992;10.158;2024-03-02T00:56:10;20.80;38.10
7234;DHT22;3658;47.992;10.158;2024-03-02T00:58:38;20.80;38.10
7234;DHT22;3658;47.992;10.158;2024-03-02T01:01:05;20.80;38.00
7234;DHT22;3658;47.992;10.158;2024-03-02T01:03:32;20.80;38.00
7234;DHT22;3658;47.992;10.158;2024-03-02T01:05:59;20.80;38.00
7234;DHT22;3658;47.992;10.158;2024-03-02T01:08:25;20.80;38.00
7234;DHT22;3658;47.992;10.158;2024-03-02T01:10:53;20.80;38.00
7234;DHT22;3658;47.992;10.158;2024-03-02T01:13:21;20.80;38.00
7234;DHT22;3658;47.992;10.158;2024-03-02T01:15:48;20.80;38.70
7234;DHT22;3658;47.992;10.158;2024-03-02T01:18:15;20.80;38.10
7234;DHT22;3658;47.992;10.158;2024-03-02T01:20:42;20.80;38.00
7234;DHT22;3658;47.992;10.158;2024-03-02T01:23:08;20.80;38.00
7234;DHT22;3658;47.992;10.158;2024-03-02T01:25:35;20.80;37.90
7234;DHT22;3658;47.992;10.158;2024-03-02T01:28:04;20.80;37.90
7234;DHT22;3658;47.992;10.158;2024-03-02T01:30:31;20.80;37.90
7234;DHT22;3658;47.992;10.158;2024-03-02T01:32:57;20.80;37.90
7234;DHT22;3658;47.992;10.158;2024-03-02T01:35:25;20.80;37.90
7234;DHT22;3658;47.992;10.158;2024-03-02T01:37:53;20.80;37.90
7234;DHT22;3658;47.992;10.158;2024-03-02T01:40:20;20.80;37.90
7234;DHT22;3658;47.992;10.158;2024-03-02T01:42:47;20.80;37.90
7234;DHT22;3658;47.992;10.158;2024-03-02T01:45:15;20.80;37.90
7234;DHT22;3658;47.992;10.158;2024-03-02T01:47:41;20.80;37.90
7234;DHT22;3658;47.992;10.158;2024-03-02T01:50:09;20.80;37.90
7234;DHT22;3658;47.992;10.158;2024-03-02T01:52:37;20.80;37.80
7234;DHT22;3658;47.992;10.158;2024-03-02T01:55:05;20.80;37.90
7234;DHT22;3658;47.992;10.158;2024-03-02T01:57:32;20.80;38.00
7234;DHT22;3658;47.992;10.158;2024-03-02T02:00:00;20.80;37.80
7234;DHT22;3658;47.992;10.158;2024-03-02T02:02:28;20.80;37.80
7234;DHT22;3658;47.992;10.158;2024-03-02T02:04:55;20.80;37.80
7234;DHT22;3658;47.992;10.158;2024-03-02T02:07:21;20.80;37.80
7234;DHT22;3658;47.992;10.158;2024-03-02T02:09:48;20.80;37.80
7234;DHT22;3658;47.992;10.158;2024-03-02T02:12:15;20.80;37.80
7234;DHT22;3658;47.992;10.158;2024-03-02T02:14:47;20.80;37.70
7234;DHT22;3658;47.992;10.158;2024-03-02T02:17:14;20.80;37.70
7234;DHT22;3658;47.992;10.158;2024-03-02T02:19:42;20.80;37.70
7234;DHT22;3658;47.992;10.158;2024-03-02T02:22:11;20.80;37.80
7234;DHT22;3658;47.992;10.158;2024-03-02T02:24:39;20.80;37.70
7234;DHT22;3658;47.992;10.158;2024-03-02T02:27:06;20.80;37.70
7234;DHT22;3658;47.992;10.158;2024-03-02T02:29:33;20.80;37.70
7234;DHT22;3658;47.992;10.158;2024-03-02T02:32:00;20.80;37.70
7234;DHT22;3658;47.992;10.158;2024-03-02T02:34:26;20.80;37.70
7234;DHT22;3658;47.992;10.158;2024-03-02T02:36:53;20.80;37.70
7234;DHT22;3658;47.992;10.158;2024-03-02T02:39:22;20.80;37.70
7234;DHT22;3658;47.992;10.158;2024-03-02T02:41:49;20.80;37.70
7234;DHT22;3658;47.992;10.158;2024-03-02T02:44:15;20.80;37.70
7234;DHT22;3658;47.992;10.158;2024-03-02T02:46:42;20.80;37.70
7234;DHT22;3658;47.992;10.158;2024-03-02T02:49:09;20.80;37.70
7234;DHT22;3658;47.992;10.158;2024-03-02T02:51:36;20.80;37.70
7234;DHT22;3658;47.992;10.158;2024-03-02T02:54:02;20.80;37.70
7234;DHT22;3658;47.992;10.158;2024-03-02T02:56:30;20.80;37.70
7234;DHT22;3658;47.992;10.158;2024-03-02T02:58:57;20.80;37.70
7234;DHT22;3658;47.992;10.158;2024-03-02T03:01:24;20.80;37.70
7234;DHT22;3658;47.992;10.158;2024-03-02T03:03:51;20.80;37.70
7234;DHT22;3658;47.992;10.158;2024-03-02T03:06:17;20.80;37.70
7234;DHT22;3658;47.992;10.158;2024-03-02T03:08:44;20.80;37.70
7234;DHT22;3658;47.992;10.158;2024-03-02T03:11:11;20.80;37.60
7234;DHT22;3658;47.992;10.158;2024-03-02T03:13:39;20.80;37.70
7234;DHT22;3658;47.992;10.158;2024-03-02T03:16:06;20.80;37.70
7234;DHT22;3658;47.992;10.158;2024-03-02T03:18:32;20.80;37.70
7234;DHT22;3658;47.992;10.158;2024-03-02T03:20:59;20.80;37.70
7234;DHT22;3658;47.992;10.158;2024-03-02T03:23:26;20.80;37.70
7234;DHT22;3658;47.992;10.158;2024-03-02T03:25:52;20.80;37.70
7234;DHT22;3658;47.992;10.158;2024-03-02T03:28:19;20.80;37.70
7234;DHT22;3658;47.992;10.158;2024-03-02T03:30:46;20.80;37.70
7234;DHT22;3658;47.992;10.158;2024-03-02T03:33:13;20.80;37.70
7234;DHT22;3658;47.992;10.158;2024-03-02T03:35:40;20.80;37.70
7234;DHT22;3658;47.992;10.158;2024-03-02T03:38:07;20.80;37.60
7234;DHT22;3658;47.992;10.158;2024-03-02T03:40:33;20.80;37.60
7234;DHT22;3658;47.992;10.158;2024-03-02T03:43:00;20.80;37.60
7234;DHT22;3658;47.992;10.158;2024-03-02T03:45:27;20.80;37.60
7234;DHT22;3658;47.992;10.158;2024-03-02T03:47:57;20.80;37.60
7234;DHT22;3658;47.992;10.158;2024-03-02T03:50:24;20.80;37.60
7234;DHT22;3658;47.992;10.158;2024-03-02T03:52:50;20.80;37.60
7234;DHT22;3658;47.992;10.158;2024-03-02T03:55:17;20.80;37.50
7234;DHT22;3658;47.992;10.158;2024-03-02T03:57:44;20.80;37.60
7234;DHT22;3658;47.992;10.158;2024-03-02T04:00:12;20.80;37.60
7234;DHT22;3658;47.992;10.158;2024-03-02T04:02:39;20.80;37.60
7234;DHT22;3658;47.992;10.158;2024-03-02T04:05:07;20.70;37.50
7234;DHT22;3658;47.992;10.158;2024-03-02T04:07:36;20.70;37.50
7234;DHT22;3658;47.992;10.158;2024-03-02T04:10:07;20.80;37.50
7234;DHT22;3658;47.992;10.158;2024-03-02T04:12:35;20.80;37.50
7234;DHT22;3658;47.992;10.158;2024-03-02T04:15:02;20.80;37.50
7234;DHT22;3658;47.992;10.158;2024-03-02T04:17:31;20.80;37.50
7234;DHT22;3658;47.992;10.158;2024-03-02T04:19:57;20.80;37.50
7234;DHT22;3658;47.992;10.158;2024-03-02T04:22:27;20.80;37.50
7234;DHT22;3658;47.992;10.158;2024-03-02T04:24:54;20.70;37.40
7234;DHT22;3658;47.992;10.158;2024-03-02T04:27:21;20.80;37.60
7234;DHT22;3658;47.992;10.158;2024-03-02T04:29:48;20.80;37.50
7234;DHT22;3658;47.992;10.158;2024-03-02T04:32:15;20.70;37.50
7234;DHT22;3658;47.992;10.158;2024-03-02T04:34:42;20.70;37.40
7234;DHT22;3658;47.992;10.158;2024-03-02T04:37:10;20.70;37.40
7234;DHT22;3658;47.992;10.158;2024-03-02T04:39:39;20.70;37.40
7234;DHT22;3658;47.992;10.158;2024-03-02T04:42:05;20.70;37.30
7234;DHT22;3658;47.992;10.158;2024-03-02T04:44:32;20.80;38.10
7234;DHT22;3658;47.992;10.158;2024-03-02T04:46:59;20.70;37.40
7234;DHT22;3658;47.992;10.158;2024-03-02T04:49:25;20.70;37.40
7234;DHT22;3658;47.992;10.158;2024-03-02T04:51:52;20.70;37.30
7234;DHT22;3658;47.992;10.158;2024-03-02T04:54:19;20.70;37.40
7234;DHT22;3658;47.992;10.158;2024-03-02T04:56:47;20.70;37.40
7234;DHT22;3658;47.992;10.158;2024-03-02T04:59:16;20.70;37.50
7234;DHT22;3658;47.992;10.158;2024-03-02T05:01:43;20.70;37.40
7234;DHT22;3658;47.992;10.158;2024-03-02T05:04:10;20.70;37.30
7234;DHT22;3658;47.992;10.158;2024-03-02T05:06:37;20.70;37.40
7234;DHT22;3658;47.992;10.158;2024-03-02T05:09:05;20.70;37.50
7234;DHT22;3658;47.992;10.158;2024-03-02T05:11:32;20.70;37.50
7234;DHT22;3658;47.992;10.158;2024-03-02T05:14:14;20.70;37.40
7234;DHT22;3658;47.992;10.158;2024-03-02T05:16:40;20.70;37.40
7234;DHT22;3658;47.992;10.158;2024-03-02T05:19:07;20.70;37.40
7234;DHT22;3658;47.992;10.158;2024-03-02T05:21:34;20.70;37.40
7234;DHT22;3658;47.992;10.158;2024-03-02T05:24:01;20.70;37.30
7234;DHT22;3658;47.992;10.158;2024-03-02T05:26:28;20.70;37.30
7234;DHT22;3658;47.992;10.158;2024-03-02T05:28:55;20.70;37.40
7234;DHT22;3658;47.992;10.158;2024-03-02T05:31:23;20.70;37.40
7234;DHT22;3658;47.992;10.158;2024-03-02T05:33:49;20.70;37.40
7234;DHT22;3658;47.992;10.158;2024-03-02T05:36:18;20.70;37.50
7234;DHT22;3658;47.992;10.158;2024-03-02T05:38:46;20.70;37.40
7234;DHT22;3658;47.992;10.158;2024-03-02T05:41:12;20.70;38.00
7234;DHT22;3658;47.992;10.158;2024-03-02T05:43:39;20.70;37.40
7234;DHT22;3658;47.992;10.158;2024-03-02T05:46:06;20.70;37.30
7234;DHT22;3658;47.992;10.158;2024-03-02T05:48:34;20.70;37.30
7234;DHT22;3658;47.992;10.158;2024-03-02T05:51:01;20.70;37.30
7234;DHT22;3658;47.992;10.158;2024-03-02T05:53:27;20.70;37.30
7234;DHT22;3658;47.992;10.158;2024-03-02T05:55:54;20.70;37.30
7234;DHT22;3658;47.992;10.158;2024-03-02T05:58:21;20.70;37.30
7234;DHT22;3658;47.992;10.158;2024-03-02T06:00:59;20.70;37.40
7234;DHT22;3658;47.992;10.158;2024-03-02T06:03:25;20.70;37.30
7234;DHT22;3658;47.992;10.158;2024-03-02T06:05:55;20.70;37.30
7234;DHT22;3658;47.992;10.158;2024-03-02T06:08:21;20.70;37.30
7234;DHT22;3658;47.992;10.158;2024-03-02T06:10:48;20.70;37.30
7234;DHT22;3658;47.992;10.158;2024-03-02T06:13:15;20.70;37.30
7234;DHT22;3658;47.992;10.158;2024-03-02T06:15:41;20.70;37.20
7234;DHT22;3658;47.992;10.158;2024-03-02T06:18:09;20.70;37.20
7234;DHT22;3658;47.992;10.158;2024-03-02T06:20:35;20.70;37.30
7234;DHT22;3658;47.992;10.158;2024-03-02T06:23:04;20.70;37.20
7234;DHT22;3658;47.992;10.158;2024-03-02T06:25:30;20.70;37.20
7234;DHT22;3658;47.992;10.158;2024-03-02T06:27:57;20.70;37.20
7234;DHT22;3658;47.992;10.158;2024-03-02T06:30:24;20.70;37.20
7234;DHT22;3658;47.992;10.158;2024-03-02T06:32:51;20.70;37.30
7234;DHT22;3658;47.992;10.158;2024-03-02T06:35:17;20.70;37.30
7234;DHT22;3658;47.992;10.158;2024-03-02T06:37:44;20.70;37.50
7234;DHT22;3658;47.992;10.158;2024-03-02T06:40:12;20.70;37.50
7234;DHT22;3658;47.992;10.158;2024-03-02T06:42:39;20.70;37.40
7234;DHT22;3658;47.992;10.158;2024-03-02T06:45:06;20.70;37.40
7234;DHT22;3658;47.992;10.158;2024-03-02T06:47:33;20.70;37.30
7234;DHT22;3658;47.992;10.158;2024-03-02T06:50:00;20.70;37.30
7234;DHT22;3658;47.992;10.158;2024-03-02T06:52:26;20.70;37.30
7234;DHT22;3658;47.992;10.158;2024-03-02T06:54:53;20.70;37.30
7234;DHT22;3658;47.992;10.158;2024-03-02T06:57:21;20.70;37.30
7234;DHT22;3658;47.992;10.158;2024-03-02T06:59:50;20.70;37.30
7234;DHT22;3658;47.992;10.158;2024-03-02T07:02:19;20.70;37.40
7234;DHT22;3658;47.992;10.158;2024-03-02T07:04:46;20.70;37.30
7234;DHT22;3658;47.992;10.158;2024-03-02T07:07:13;20.70;37.30
7234;DHT22;3658;47.992;10.158;2024-03-02T07:09:40;20.70;37.20
7234;DHT22;3658;47.992;10.158;2024-03-02T07:12:07;20.70;37.30
7234;DHT22;3658;47.992;10.158;2024-03-02T07:14:35;20.70;37.30
7234;DHT22;3658;47.992;10.158;2024-03-02T07:17:19;20.70;37.40
7234;DHT22;3658;47.992;10.158;2024-03-02T07:19:45;20.70;37.30
7234;DHT22;3658;47.992;10.158;2024-03-02T07:22:13;20.70;37.30
7234;DHT22;3658;47.992;10.158;2024-03-02T07:24:40;20.70;37.30
7234;DHT22;3658;47.992;10.158;2024-03-02T07:27:07;20.70;37.30
7234;DHT22;3658;47.992;10.158;2024-03-02T07:29:35;20.70;37.30
7234;DHT22;3658;47.992;10.158;2024-03-02T07:32:02;20.70;38.00
7234;DHT22;3658;47.992;10.158;2024-03-02T07:34:29;20.70;38.90
7234;DHT22;3658;47.992;10.158;2024-03-02T07:36:57;20.70;39.10
7234;DHT22;3658;47.992;10.158;2024-03-02T07:39:24;20.70;39.10
7234;DHT22;3658;47.992;10.158;2024-03-02T07:41:51;20.70;39.20
7234;DHT22;3658;47.992;10.158;2024-03-02T07:44:17;20.70;39.30
7234;DHT22;3658;47.992;10.158;2024-03-02T07:46:46;20.70;39.30
7234;DHT22;3658;47.992;10.158;2024-03-02T07:49:15;20.70;39.30
7234;DHT22;3658;47.992;10.158;2024-03-02T07:51:42;20.70;39.40
7234;DHT22;3658;47.992;10.158;2024-03-02T07:54:09;20.70;39.50
7234;DHT22;3658;47.992;10.158;2024-03-02T07:56:36;20.70;39.70
7234;DHT22;3658;47.992;10.158;2024-03-02T07:59:03;20.70;39.70
7234;DHT22;3658;47.992;10.158;2024-03-02T08:01:31;20.70;39.80
7234;DHT22;3658;47.992;10.158;2024-03-02T08:04:00;20.70;39.80
7234;DHT22;3658;47.992;10.158;2024-03-02T08:06:29;20.70;39.90
7234;DHT22;3658;47.992;10.158;2024-03-02T08:08:56;20.70;39.60
7234;DHT22;3658;47.992;10.158;2024-03-02T08:11:23;20.70;39.60
7234;DHT22;3658;47.992;10.158;2024-03-02T08:13:50;20.70;39.60
7234;DHT22;3658;47.992;10.158;2024-03-02T08:16:18;20.70;39.60
7234;DHT22;3658;47.992;10.158;2024-03-02T08:18:46;20.70;39.90
7234;DHT22;3658;47.992;10.158;2024-03-02T08:21:14;20.70;40.10
7234;DHT22;3658;47.992;10.158;2024-03-02T08:23:41;20.70;40.00
7234;DHT22;3658;47.992;10.158;2024-03-02T08:26:08;20.70;40.10
7234;DHT22;3658;47.992;10.158;2024-03-02T08:28:35;20.70;40.10
7234;DHT22;3658;47.992;10.158;2024-03-02T08:31:03;20.70;40.10
7234;DHT22;3658;47.992;10.158;2024-03-02T08:33:30;20.70;40.00
7234;DHT22;3658;47.992;10.158;2024-03-02T08:35:56;20.70;40.00
7234;DHT22;3658;47.992;10.158;2024-03-02T08:38:25;20.70;40.00
7234;DHT22;3658;47.992;10.158;2024-03-02T08:40:52;20.70;40.00
7234;DHT22;3658;47.992;10.158;2024-03-02T08:43:19;20.70;40.00
7234;DHT22;3658;47.992;10.158;2024-03-02T08:45:48;20.70;40.00
7234;DHT22;3658;47.992;10.158;2024-03-02T08:48:14;20.70;39.90
7234;DHT22;3658;47.992;10.158;2024-03-02T08:50:41;20.70;40.00
7234;DHT22;3658;47.992;10.158;2024-03-02T08:53:08;20.70;39.90
7234;DHT22;3658;47.992;10.158;2024-03-02T08:55:36;20.70;39.90
7234;DHT22;3658;47.992;10.158;2024-03-02T08:58:03;20.70;39.90
7234;DHT22;3658;47.992;10.158;2024-03-02T09:00:30;20.70;39.80
7234;DHT22;3658;47.992;10.158;2024-03-02T09:02:57;20.70;39.80
7234;DHT22;3658;47.992;10.158;2024-03-02T09:05:23;20.70;39.80
7234;DHT22;3658;47.992;10.158;2024-03-02T09:07:50;20.70;39.70
7234;DHT22;3658;47.992;10.158;2024-03-02T09:10:17;20.70;39.80
7234;DHT22;3658;47.992;10.158;2024-03-02T09:12:45;20.70;39.80
7234;DHT22;3658;47.992;10.158;2024-03-02T09:15:11;20.70;40.30
7234;DHT22;3658;47.992;10.158;2024-03-02T09:17:38;20.70;39.70
7234;DHT22;3658;47.992;10.158;2024-03-02T09:20:06;20.70;39.70
7234;DHT22;3658;47.992;10.158;2024-03-02T09:22:33;20.70;39.70
7234;DHT22;3658;47.992;10.158;2024-03-02T09:25:00;20.70;39.70
7234;DHT22;3658;47.992;10.158;2024-03-02T09:27:26;20.70;39.70
7234;DHT22;3658;47.992;10.158;2024-03-02T09:29:54;20.70;39.60
7234;DHT22;3658;47.992;10.158;2024-03-02T09:32:21;20.70;39.60
7234;DHT22;3658;47.992;10.158;2024-03-02T09:34:49;20.70;39.60
7234;DHT22;3658;47.992;10.158;2024-03-02T09:37:16;20.70;39.60
7234;DHT22;3658;47.992;10.158;2024-03-02T09:39:43;20.70;39.60
7234;DHT22;3658;47.992;10.158;2024-03-02T09:42:11;20.70;39.70
7234;DHT22;3658;47.992;10.158;2024-03-02T09:44:39;20.70;39.70
7234;DHT22;3658;47.992;10.158;2024-03-02T09:47:09;20.70;39.80
7234;DHT22;3658;47.992;10.158;2024-03-02T09:49:36;20.70;39.80
7234;DHT22;3658;47.992;10.158;2024-03-02T09:52:03;20.70;39.90
7234;DHT22;3658;47.992;10.158;2024-03-02T09:54:31;20.70;40.00
7234;DHT22;3658;47.992;10.158;2024-03-02T09:56:58;20.70;40.00
7234;DHT22;3658;47.992;10.158;2024-03-02T09:59:27;20.70;40.00
7234;DHT22;3658;47.992;10.158;2024-03-02T10:01:58;20.70;40.10
7234;DHT22;3658;47.992;10.158;2024-03-02T10:04:27;20.70;40.10
7234;DHT22;3658;47.992;10.158;2024-03-02T10:07:11;20.70;40.10
7234;DHT22;3658;47.992;10.158;2024-03-02T10:09:38;20.70;40.10
7234;DHT22;3658;47.992;10.158;2024-03-02T10:12:06;20.70;40.10
7234;DHT22;3658;47.992;10.158;2024-03-02T10:14:33;20.70;40.10
7234;DHT22;3658;47.992;10.158;2024-03-02T10:17:04;20.70;40.10
7234;DHT22;3658;47.992;10.158;2024-03-02T10:19:32;20.70;40.10
7234;DHT22;3658;47.992;10.158;2024-03-02T10:22:01;20.70;40.10
7234;DHT22;3658;47.992;10.158;2024-03-02T10:24:35;20.70;40.10
7234;DHT22;3658;47.992;10.158;2024-03-02T10:27:07;20.70;40.20
7234;DHT22;3658;47.992;10.158;2024-03-02T10:29:37;20.70;40.10
7234;DHT22;3658;47.992;10.158;2024-03-02T10:32:05;20.70;40.10
7234;DHT22;3658;47.992;10.158;2024-03-02T10:34:33;20.70;40.10
7234;DHT22;3658;47.992;10.158;2024-03-02T10:37:02;20.70;40.10
7234;DHT22;3658;47.992;10.158;2024-03-02T10:39:29;20.70;40.20
7234;DHT22;3658;47.992;10.158;2024-03-02T10:41:57;20.70;40.20
7234;DHT22;3658;47.992;10.158;2024-03-02T10:44:25;20.70;40.20
7234;DHT22;3658;47.992;10.158;2024-03-02T10:46:53;20.70;40.10
7234;DHT22;3658;47.992;10.158;2024-03-02T10:49:23;20.70;40.20
7234;DHT22;3658;47.992;10.158;2024-03-02T10:51:52;20.70;40.20
7234;DHT22;3658;47.992;10.158;2024-03-02T10:54:19;20.70;40.10
7234;DHT22;3658;47.992;10.158;2024-03-02T10:56:51;20.70;40.20
7234;DHT22;3658;47.992;10.158;2024-03-02T10:59:25;20.70;40.10
7234;DHT22;3658;47.992;10.158;2024-03-02T11:01:55;20.70;40.10
7234;DHT22;3658;47.992;10.158;2024-03-02T11:04:24;20.70;40.20
7234;DHT22;3658;47.992;10.158;2024-03-02T11:06:58;20.70;40.20
7234;DHT22;3658;47.992;10.158;2024-03-02T11:09:27;20.70;40.20
7234;DHT22;3658;47.992;10.158;2024-03-02T11:12:00;20.70;40.20
7234;DHT22;3658;47.992;10.158;2024-03-02T11:14:30;20.70;40.20
7234;DHT22;3658;47.992;10.158;2024-03-02T11:16:57;20.80;40.30
7234;DHT22;3658;47.992;10.158;2024-03-02T11:19:25;20.70;40.20
7234;DHT22;3658;47.992;10.158;2024-03-02T11:21:54;20.70;40.10
7234;DHT22;3658;47.992;10.158;2024-03-02T11:24:33;20.70;40.10
7234;DHT22;3658;47.992;10.158;2024-03-02T11:27:01;20.70;40.10
7234;DHT22;3658;47.992;10.158;2024-03-02T11:29:46;20.70;40.10
7234;DHT22;3658;47.992;10.158;2024-03-02T11:32:14;20.70;40.10
7234;DHT22;3658;47.992;10.158;2024-03-02T11:34:43;20.80;40.20
7234;DHT22;3658;47.992;10.158;2024-03-02T11:37:13;20.80;40.30
7234;DHT22;3658;47.992;10.158;2024-03-02T11:39:41;20.80;40.30
7234;DHT22;3658;47.992;10.158;2024-03-02T11:42:08;20.80;40.40
7234;DHT22;3658;47.992;10.158;2024-03-02T11:44:36;20.80;40.40
7234;DHT22;3658;47.992;10.158;2024-03-02T11:47:08;20.70;40.40
7234;DHT22;3658;47.992;10.158;2024-03-02T11:49:39;20.80;40.40
7234;DHT22;3658;47.992;10.158;2024-03-02T11:52:08;20.80;40.50
7234;DHT22;3658;47.992;10.158;2024-03-02T11:54:37;20.80;41.10
7234;DHT22;3658;47.992;10.158;2024-03-02T11:57:06;20.80;40.40
7234;DHT22;3658;47.992;10.158;2024-03-02T11:59:33;20.80;40.40
7234;DHT22;3658;47.992;10.158;2024-03-02T12:02:00;20.80;40.40
7234;DHT22;3658;47.992;10.158;2024-03-02T12:04:29;20.80;40.50
7234;DHT22;3658;47.992;10.158;2024-03-02T12:06:58;20.80;40.50
7234;DHT22;3658;47.992;10.158;2024-03-02T12:09:26;20.80;40.50
7234;DHT22;3658;47.992;10.158;2024-03-02T12:12:06;20.80;40.40
7234;DHT22;3658;47.992;10.158;2024-03-02T12:14:33;20.80;41.10
7234;DHT22;3658;47.992;10.158;2024-03-02T12:17:03;20.80;40.40
7234;DHT22;3658;47.992;10.158;2024-03-02T12:19:30;20.80;40.40
7234;DHT22;3658;47.992;10.158;2024-03-02T12:21:57;20.80;40.40
7234;DHT22;3658;47.992;10.158;2024-03-02T12:24:26;20.80;40.40
7234;DHT22;3658;47.992;10.158;2024-03-02T12:26:53;20.80;40.40
7234;DHT22;3658;47.992;10.158;2024-03-02T12:29:22;20.80;40.30
7234;DHT22;3658;47.992;10.158;2024-03-02T12:31:50;20.60;40.10
7234;DHT22;3658;47.992;10.158;2024-03-02T12:34:18;20.80;40.30
7234;DHT22;3658;47.992;10.158;2024-03-02T12:36:46;20.80;40.20
7234;DHT22;3658;47.992;10.158;2024-03-02T12:39:15;20.80;40.30
7234;DHT22;3658;47.992;10.158;2024-03-02T12:41:42;20.80;40.30
7234;DHT22;3658;47.992;10.158;2024-03-02T12:44:08;20.80;40.30
7234;DHT22;3658;47.992;10.158;2024-03-02T12:46:37;20.80;40.30
7234;DHT22;3658;47.992;10.158;2024-03-02T12:49:11;20.80;40.20
7234;DHT22;3658;47.992;10.158;2024-03-02T12:51:39;20.80;40.30
7234;DHT22;3658;47.992;10.158;2024-03-02T12:54:07;20.80;40.30
7234;DHT22;3658;47.992;10.158;2024-03-02T12:56:35;20.80;40.40
7234;DHT22;3658;47.992;10.158;2024-03-02T12:59:03;20.80;40.50
7234;DHT22;3658;47.992;10.158;2024-03-02T13:01:30;20.80;40.40
7234;DHT22;3658;47.992;10.158;2024-03-02T13:03:59;20.80;40.50
7234;DHT22;3658;47.992;10.158;2024-03-02T13:06:26;20.80;40.50
7234;DHT22;3658;47.992;10.158;2024-03-02T13:08:55;20.80;40.40
7234;DHT22;3658;47.992;10.158;2024-03-02T13:11:22;20.80;40.40
7234;DHT22;3658;47.992;10.158;2024-03-02T13:13:50;20.80;40.40
7234;DHT22;3658;47.992;10.158;2024-03-02T13:16:18;20.80;40.30
7234;DHT22;3658;47.992;10.158;2024-03-02T13:18:45;20.80;40.50
7234;DHT22;3658;47.992;10.158;2024-03-02T13:21:14;20.80;40.50
7234;DHT22;3658;47.992;10.158;2024-03-02T13:23:40;20.80;40.60
7234;DHT22;3658;47.992;10.158;2024-03-02T13:26:07;20.80;40.60
7234;DHT22;3658;47.992;10.158;2024-03-02T13:28:36;20.80;40.60
7234;DHT22;3658;47.992;10.158;2024-03-02T13:31:04;20.80;40.70
7234;DHT22;3658;47.992;10.158;2024-03-02T13:33:31;20.80;40.70
7234;DHT22;3658;47.992;10.158;2024-03-02T13:35:58;20.80;40.70
7234;DHT22;3658;47.992;10.158;2024-03-02T13:38:26;20.80;40.70
7234;DHT22;3658;47.992;10.158;2024-03-02T13:40:53;20.80;40.70
7234;DHT22;3658;47.992;10.158;2024-03-02T13:43:20;20.80;40.60
7234;DHT22;3658;47.992;10.158;2024-03-02T13:45:49;20.80;40.60
7234;DHT22;3658;47.992;10.158;2024-03-02T13:48:17;20.80;40.60
7234;DHT22;3658;47.992;10.158;2024-03-02T13:50:44;20.80;40.60
7234;DHT22;3658;47.992;10.158;2024-03-02T13:53:11;20.80;40.60
7234;DHT22;3658;47.992;10.158;2024-03-02T13:55:39;20.80;40.70
7234;DHT22;3658;47.992;10.158;2024-03-02T13:58:07;20.80;40.70
7234;DHT22;3658;47.992;10.158;2024-03-02T14:00:34;20.80;40.60
7234;DHT22;3658;47.992;10.158;2024-03-02T14:03:02;20.80;40.60
7234;DHT22;3658;47.992;10.158;2024-03-02T14:05:30;20.70;40.60
7234;DHT22;3658;47.992;10.158;2024-03-02T14:07:57;20.70;40.60
7234;DHT22;3658;47.992;10.158;2024-03-02T14:10:24;20.80;40.70
7234;DHT22;3658;47.992;10.158;2024-03-02T14:12:52;20.80;40.60
7234;DHT22;3658;47.992;10.158;2024-03-02T14:15:20;20.80;40.60
7234;DHT22;3658;47.992;10.158;2024-03-02T14:17:47;20.80;40.60
7234;DHT22;3658;47.992;10.158;2024-03-02T14:20:14;20.80;40.60
7234;DHT22;3658;47.992;10.158;2024-03-02T14:22:46;20.80;40.60
7234;DHT22;3658;47.992;10.158;2024-03-02T14:25:13;20.70;41.20
7234;DHT22;3658;47.992;10.158;2024-03-02T14:27:40;20.70;40.60
7234;DHT22;3658;47.992;10.158;2024-03-02T14:30:09;20.70;40.60
7234;DHT22;3658;47.992;10.158;2024-03-02T14:32:36;20.70;40.50
7234;DHT22;3658;47.992;10.158;2024-03-02T14:35:03;20.70;40.60
7234;DHT22;3658;47.992;10.158;2024-03-02T14:37:30;20.70;40.60
7234;DHT22;3658;47.992;10.158;2024-03-02T14:39:57;20.70;40.60
7234;DHT22;3658;47.992;10.158;2024-03-02T14:42:24;20.80;40.60
7234;DHT22;3658;47.992;10.158;2024-03-02T14:44:50;20.70;40.60
7234;DHT22;3658;47.992;10.158;2024-03-02T14:47:18;20.70;40.60
7234;DHT22;3658;47.992;10.158;2024-03-02T14:49:45;20.70;40.50
7234;DHT22;3658;47.992;10.158;2024-03-02T14:52:12;20.80;40.60
7234;DHT22;3658;47.992;10.158;2024-03-02T14:54:39;20.80;40.60
7234;DHT22;3658;47.992;10.158;2024-03-02T14:57:07;20.70;40.50
7234;DHT22;3658;47.992;10.158;2024-03-02T14:59:34;20.70;40.60
7234;DHT22;3658;47.992;10.158;2024-03-02T15:02:01;20.80;40.70
7234;DHT22;3658;47.992;10.158;2024-03-02T15:04:29;20.80;40.70
7234;DHT22;3658;47.992;10.158;2024-03-02T15:06:55;20.70;40.60
7234;DHT22;3658;47.992;10.158;2024-03-02T15:09:22;20.70;40.60
7234;DHT22;3658;47.992;10.158;2024-03-02T15:11:49;20.70;40.70
7234;DHT22;3658;47.992;10.158;2024-03-02T15:14:16;20.70;40.70
7234;DHT22;3658;47.992;10.158;2024-03-02T15:16:43;20.70;40.70
7234;DHT22;3658;47.992;10.158;2024-03-02T15:19:10;20.70;40.80
7234;DHT22;3658;47.992;10.158;2024-03-02T15:21:38;20.70;40.80
7234;DHT22;3658;47.992;10.158;2024-03-02T15:24:05;20.70;40.70
7234;DHT22;3658;47.992;10.158;2024-03-02T15:26:32;20.70;40.60
7234;DHT22;3658;47.992;10.158;2024-03-02T15:28:59;20.70;40.70
7234;DHT22;3658;47.992;10.158;2024-03-02T15:31:26;20.70;40.60
7234;DHT22;3658;47.992;10.158;2024-03-02T15:33:52;20.60;39.90
7234;DHT22;3658;47.992;10.158;2024-03-02T15:36:21;20.50;39.70
7234;DHT22;3658;47.992;10.158;2024-03-02T15:38:49;20.50;39.60
7234;DHT22;3658;47.992;10.158;2024-03-02T15:41:16;20.40;39.60
7234;DHT22;3658;47.992;10.158;2024-03-02T15:43:42;20.30;39.60
7234;DHT22;3658;47.992;10.158;2024-03-02T15:46:09;20.30;39.70
7234;DHT22;3658;47.992;10.158;2024-03-02T15:48:36;20.30;39.70